sensor_id;sensor_type;location;lat;lon;timestamp;pressure;altitude;pressure_sealevel;temperature;humidity
68199;BME280;55021;51.554;17.044;2023-04-28T00:14:36;101099.97;;;4.97;75.01
68199;BME280;55021;51.554;17.044;2023-04-28T00:29:38;101090.16;;;4.71;76.25
68199;BME280;55021;51.554;17.044;2023-04-28T00:44:41;101079.56;;;4.82;74.03
68199;BME280;55021;51.554;17.044;2023-04-28T00:59:43;101076.03;;;4.82;75.01
68199;BME280;55021;51.554;17.044;2023-04-28T01:14:47;101087.78;;;4.67;76.00
68199;BME280;55021;51.554;17.044;2023-04-28T01:29:49;101068.53;;;3.64;79.51
68199;BME280;55021;51.554;17.044;2023-04-28T01:44:52;101072.63;;;3.84;79.51
68199;BME280;55021;51.554;17.044;2023-04-28T01:59:55;101069.00;;;3.57;82.95
68199;BME280;55021;51.554;17.044;2023-04-28T02:14:58;101070.94;;;3.55;82.25
68199;BME280;55021;51.554;17.044;2023-04-28T02:30:00;101066.66;;;4.48;76.85
68199;BME280;55021;51.554;17.044;2023-04-28T02:45:04;101058.50;;;4.37;78.22
68199;BME280;55021;51.554;17.044;2023-04-28T03:00:08;101046.38;;;4.31;77.11
68199;BME280;55021;51.554;17.044;2023-04-28T03:15:11;100982.53;;;3.56;78.74
68199;BME280;55021;51.554;17.044;2023-04-28T03:30:13;101050.34;;;4.12;78.12
68199;BME280;55021;51.554;17.044;2023-04-28T03:45:16;101030.97;;;4.74;75.47
68199;BME280;55021;51.554;17.044;2023-04-28T04:00:18;101022.81;;;4.10;77.69
68199;BME280;55021;51.554;17.044;2023-04-28T04:15:20;101025.16;;;5.20;75.63
68199;BME280;55021;51.554;17.044;2023-04-28T04:30:23;101034.81;;;5.73;75.04
68199;BME280;55021;51.554;17.044;2023-04-28T04:45:25;101014.34;;;6.44;73.24
68199;BME280;55021;51.554;17.044;2023-04-28T05:00:28;100990.50;;;6.63;74.09
68199;BME280;55021;51.554;17.044;2023-04-28T05:15:30;101016.28;;;7.80;71.06
68199;BME280;55021;51.554;17.044;2023-04-28T05:30:33;100987.09;;;8.61;70.29
68199;BME280;55021;51.554;17.044;2023-04-28T05:45:35;100980.75;;;9.24;66.94
68199;BME280;55021;51.554;17.044;2023-04-28T06:00:38;100965.31;;;10.84;64.47
68199;BME280;55021;51.554;17.044;2023-04-28T06:15:40;100950.94;;;11.76;59.94
68199;BME280;55021;51.554;17.044;2023-04-28T06:30:42;100929.03;;;12.42;55.99
68199;BME280;55021;51.554;17.044;2023-04-28T06:45:45;100928.81;;;13.40;51.44
68199;BME280;55021;51.554;17.044;2023-04-28T07:00:50;100910.66;;;13.74;50.78
68199;BME280;55021;51.554;17.044;2023-04-28T07:15:53;100851.66;;;13.74;49.26
68199;BME280;55021;51.554;17.044;2023-04-28T07:30:56;100882.31;;;14.83;48.11
68199;BME280;55021;51.554;17.044;2023-04-28T07:45:58;100885.28;;;15.44;45.71
68199;BME280;55021;51.554;17.044;2023-04-28T08:01:01;100842.03;;;15.72;43.71
68199;BME280;55021;51.554;17.044;2023-04-28T08:16:05;100848.28;;;16.65;40.42
68199;BME280;55021;51.554;17.044;2023-04-28T08:31:07;100823.06;;;17.15;40.91
68199;BME280;55021;51.554;17.044;2023-04-28T08:46:10;100815.13;;;17.20;36.95
68199;BME280;55021;51.554;17.044;2023-04-28T09:01:16;100801.16;;;17.59;39.93
68199;BME280;55021;51.554;17.044;2023-04-28T09:16:38;100780.66;;;17.84;36.16
68199;BME280;55021;51.554;17.044;2023-04-28T09:31:41;100757.28;;;18.24;37.41
68199;BME280;55021;51.554;17.044;2023-04-28T09:46:46;100744.13;;;18.89;34.87
68199;BME280;55021;51.554;17.044;2023-04-28T10:01:49;100688.09;;;18.43;36.33
68199;BME280;55021;51.554;17.044;2023-04-28T10:16:53;100699.06;;;19.05;37.12
68199;BME280;55021;51.554;17.044;2023-04-28T10:32:20;100686.44;;;19.04;34.46
68199;BME280;55021;51.554;17.044;2023-04-28T10:47:25;100662.94;;;18.60;34.65
68199;BME280;55021;51.554;17.044;2023-04-28T11:02:40;100619.03;;;19.49;33.16
68199;BME280;55021;51.554;17.044;2023-04-28T11:17:47;100632.13;;;19.47;33.69
68199;BME280;55021;51.554;17.044;2023-04-28T11:32:55;100622.66;;;20.74;32.60
68199;BME280;55021;51.554;17.044;2023-04-28T11:47:59;100610.88;;;20.40;32.97
68199;BME280;55021;51.554;17.044;2023-04-28T12:03:07;100598.75;;;21.63;31.77
68199;BME280;55021;51.554;17.044;2023-04-28T12:18:10;100587.66;;;20.94;33.86
68199;BME280;55021;51.554;17.044;2023-04-28T12:33:22;100564.03;;;21.24;32.16
68199;BME280;55021;51.554;17.044;2023-04-28T12:48:29;100561.00;;;20.94;31.89
68199;BME280;55021;51.554;17.044;2023-04-28T13:03:31;100540.97;;;20.81;34.13
68199;BME280;55021;51.554;17.044;2023-04-28T13:18:33;100501.16;;;20.90;32.34
68199;BME280;55021;51.554;17.044;2023-04-28T13:33:36;100512.03;;;21.10;33.83
68199;BME280;55021;51.554;17.044;2023-04-28T13:48:39;100487.53;;;21.02;34.06
68199;BME280;55021;51.554;17.044;2023-04-28T14:03:42;100431.06;;;20.68;36.37
68199;BME280;55021;51.554;17.044;2023-04-28T14:18:44;100464.25;;;20.73;32.63
68199;BME280;55021;51.554;17.044;2023-04-28T14:33:46;100449.59;;;21.10;33.71
68199;BME280;55021;51.554;17.044;2023-04-28T14:48:50;100443.91;;;20.74;35.76
68199;BME280;55021;51.554;17.044;2023-04-28T15:03:53;100421.38;;;20.01;37.10
68199;BME280;55021;51.554;17.044;2023-04-28T15:18:55;100379.56;;;19.99;36.90
68199;BME280;55021;51.554;17.044;2023-04-28T15:33:58;100404.53;;;19.91;38.46
68199;BME280;55021;51.554;17.044;2023-04-28T15:49:00;100371.78;;;19.90;38.92
68199;BME280;55021;51.554;17.044;2023-04-28T16:04:03;100366.19;;;19.45;36.96
68199;BME280;55021;51.554;17.044;2023-04-28T16:19:05;100338.09;;;19.43;38.17
68199;BME280;55021;51.554;17.044;2023-04-28T16:34:07;100358.19;;;18.98;38.88
68199;BME280;55021;51.554;17.044;2023-04-28T16:49:10;100338.75;;;18.73;37.87
68199;BME280;55021;51.554;17.044;2023-04-28T17:04:13;100319.06;;;18.24;39.13
68199;BME280;55021;51.554;17.044;2023-04-28T17:19:15;100311.38;;;17.93;38.76
68199;BME280;55021;51.554;17.044;2023-04-28T17:34:17;100318.09;;;17.15;44.13
68199;BME280;55021;51.554;17.044;2023-04-28T17:49:20;100241.75;;;16.30;44.43
68199;BME280;55021;51.554;17.044;2023-04-28T18:04:22;100308.13;;;15.95;46.58
68199;BME280;55021;51.554;17.044;2023-04-28T18:19:27;100311.31;;;15.99;47.27
68199;BME280;55021;51.554;17.044;2023-04-28T18:34:29;100284.94;;;14.82;54.00
68199;BME280;55021;51.554;17.044;2023-04-28T18:49:32;100323.03;;;14.68;53.93
68199;BME280;55021;51.554;17.044;2023-04-28T19:04:34;100304.13;;;14.29;50.34
68199;BME280;55021;51.554;17.044;2023-04-28T19:19:36;100312.50;;;14.19;51.52
68199;BME280;55021;51.554;17.044;2023-04-28T19:34:39;100310.91;;;14.70;51.14
68199;BME280;55021;51.554;17.044;2023-04-28T19:49:41;100315.41;;;14.63;49.06
68199;BME280;55021;51.554;17.044;2023-04-28T20:04:44;100296.47;;;14.70;49.19
68199;BME280;55021;51.554;17.044;2023-04-28T20:19:46;100245.00;;;14.37;50.07
68199;BME280;55021;51.554;17.044;2023-04-28T20:34:49;100314.41;;;14.79;48.95
68199;BME280;55021;51.554;17.044;2023-04-28T20:49:52;100262.47;;;14.43;50.39
68199;BME280;55021;51.554;17.044;2023-04-28T21:04:56;100306.88;;;14.66;50.33
68199;BME280;55021;51.554;17.044;2023-04-28T21:19:59;100305.84;;;14.67;51.53
68199;BME280;55021;51.554;17.044;2023-04-28T21:35:02;100279.44;;;14.30;52.00
68199;BME280;55021;51.554;17.044;2023-04-28T21:50:05;100295.69;;;14.38;52.30
68199;BME280;55021;51.554;17.044;2023-04-28T22:05:08;100287.53;;;14.16;52.48
68199;BME280;55021;51.554;17.044;2023-04-28T22:20:12;100285.78;;;13.39;57.52
68199;BME280;55021;51.554;17.044;2023-04-28T22:35:14;100286.09;;;12.72;57.38
68199;BME280;55021;51.554;17.044;2023-04-28T22:50:17;100274.09;;;12.59;57.92
68199;BME280;55021;51.554;17.044;2023-04-28T23:05:20;100267.13;;;12.48;58.50
68199;BME280;55021;51.554;17.044;2023-04-28T23:20:22;100259.50;;;12.44;59.09
68199;BME280;55021;51.554;17.044;2023-04-28T23:35:25;100245.28;;;12.09;62.06
68199;BME280;55021;51.554;17.044;2023-04-28T23:50:28;100228.44;;;11.74;63.62
